Time;durP1;ratioP1;P1;durP2;ratioP2;P2;SDS_P1;SDS_P2;PMS_P1;PMS_P2;Temp;Humidity;BMP_temperature;BMP_pressure;BME280_temperature;BME280_humidity;BME280_pressure;Samples;Min_cycle;Max_cycle;Signal;HPM_P1;HPM_P2
2020/12/06 00:00:03;;;;;;;1999.90;999.90;;;;;;;1.44;77.52;96849.03;5093791;28;20427;-71
2020/12/06 00:02:29;;;;;;;1999.90;999.90;;;;;;;1.60;77.36;96840.47;5093759;28;20097;-72
2020/12/06 00:04:54;;;;;;;1999.90;999.90;;;;;;;1.54;77.23;96835.91;5093720;28;20047;-72
2020/12/06 00:07:20;;;;;;;1999.90;999.90;;;;;;;1.68;76.46;96852.69;5093187;28;20105;-72
2020/12/06 00:09:45;;;;;;;1999.90;999.90;;;;;;;1.51;76.54;96851.81;5093591;28;20048;-72
2020/12/06 00:12:10;;;;;;;1999.90;999.90;;;;;;;1.72;76.14;96859.22;5093632;28;20052;-72
2020/12/06 00:14:36;;;;;;;1999.90;999.90;;;;;;;1.50;76.52;96842.38;5093437;28;20040;-72
2020/12/06 00:17:01;;;;;;;1999.90;999.90;;;;;;;1.74;75.90;96852.06;5092757;28;20090;-72
2020/12/06 00:19:27;;;;;;;1999.90;999.90;;;;;;;1.86;75.50;96849.16;5093389;28;20489;-71
2020/12/06 00:21:52;;;;;;;1999.90;999.90;;;;;;;1.90;74.92;96851.31;5093183;28;20044;-72
2020/12/06 00:24:20;;;;;;;1999.90;999.90;;;;;;;1.84;75.18;96851.94;5093415;28;20056;-72
2020/12/06 00:26:45;;;;;;;1999.90;999.90;;;;;;;1.83;75.41;96858.09;5093114;28;20382;-72
2020/12/06 00:29:11;;;;;;;1999.90;999.90;;;;;;;1.89;75.25;96856.66;5093339;28;20126;-71
2020/12/06 00:31:36;;;;;;;1999.90;999.90;;;;;;;1.95;75.04;96861.22;5093332;28;20046;-72
2020/12/06 00:34:02;;;;;;;1999.90;999.90;;;;;;;2.01;74.60;96872.78;5093119;28;20134;-72
2020/12/06 00:36:27;;;;;;;1999.90;999.90;;;;;;;2.07;74.49;96869.53;5093320;28;20047;-72
2020/12/06 00:38:53;;;;;;;1999.90;999.90;;;;;;;1.91;74.52;96863.31;5093112;28;20076;-72
2020/12/06 00:41:19;;;;;;;1999.90;999.90;;;;;;;2.03;74.16;96865.63;5108795;28;20048;-72
2020/12/06 00:43:45;;;;;;;1999.90;999.90;;;;;;;1.98;74.46;96856.53;5093044;28;20047;-72
2020/12/06 00:46:10;;;;;;;1999.90;999.90;;;;;;;2.11;73.77;96858.66;5092949;28;20074;-72
2020/12/06 00:48:36;;;;;;;1999.90;999.90;;;;;;;2.12;73.67;96844.66;5092927;28;20040;-72
2020/12/06 00:51:02;;;;;;;1999.90;999.90;;;;;;;2.04;74.10;96855.06;5093034;28;20047;-72
2020/12/06 00:53:27;;;;;;;1999.90;999.90;;;;;;;2.04;74.17;96856.84;5092988;28;20483;-72
2020/12/06 00:55:53;;;;;;;1999.90;999.90;;;;;;;2.06;74.34;96854.88;5074639;28;20044;-72
2020/12/06 00:58:19;;;;;;;1999.90;999.90;;;;;;;2.10;74.13;96856.22;5093056;28;20496;-72
2020/12/06 01:00:45;;;;;;;1999.90;999.90;;;;;;;2.09;73.82;96852.78;5092793;28;20074;-72
2020/12/06 01:03:11;;;;;;;1999.90;999.90;;;;;;;2.14;73.89;96852.31;5092835;28;20052;-72
2020/12/06 01:05:37;;;;;;;1999.90;999.90;;;;;;;2.17;74.04;96853.78;5092269;28;20544;-72
2020/12/06 01:08:02;;;;;;;1999.90;999.90;;;;;;;2.07;73.88;96852.16;5092927;28;20071;-72
2020/12/06 01:10:28;;;;;;;1999.90;999.90;;;;;;;2.12;74.18;96869.88;5108462;28;20067;-72
2020/12/06 01:12:53;;;;;;;1999.90;999.90;;;;;;;2.14;74.05;96852.31;5092654;28;20044;-72
2020/12/06 01:15:19;;;;;;;1999.90;999.90;;;;;;;2.21;73.61;96853.28;5092711;28;20058;-72
2020/12/06 01:17:45;;;;;;;1999.90;999.90;;;;;;;2.13;73.61;96850.69;5092691;28;20098;-72
2020/12/06 01:20:10;;;;;;;1999.90;999.90;;;;;;;2.18;73.46;96851.00;5092643;28;20078;-72
2020/12/06 01:22:36;;;;;;;1999.90;999.90;;;;;;;2.21;73.67;96842.88;5092709;28;20131;-72
2020/12/06 01:25:04;;;;;;;1999.90;999.90;;;;;;;2.24;73.60;96847.78;5092474;28;20040;-71
2020/12/06 01:27:29;;;;;;;1999.90;999.90;;;;;;;2.14;74.02;96842.72;5092853;28;20059;-71
2020/12/06 01:29:54;;;;;;;1999.90;999.90;;;;;;;2.17;73.35;96846.78;5096232;28;20047;-72
2020/12/06 01:32:20;;;;;;;1999.90;999.90;;;;;;;1.81;75.24;96841.81;5096945;28;20051;-72
2020/12/06 01:34:45;;;;;;;1999.90;999.90;;;;;;;2.04;74.08;96847.25;5096841;28;20047;-72
2020/12/06 01:37:11;;;;;;;1999.90;999.90;;;;;;;2.07;74.34;96851.31;5096640;28;20040;-71
2020/12/06 01:39:36;;;;;;;1999.90;999.90;;;;;;;2.16;73.53;96839.94;5096795;28;20048;-72
2020/12/06 01:42:02;;;;;;;1999.90;999.90;;;;;;;2.16;73.83;96834.72;5096679;28;20043;-72
2020/12/06 01:44:27;;;;;;;1999.90;999.90;;;;;;;2.16;74.28;96834.72;5084826;28;20252;-72
2020/12/06 01:46:54;;;;;;;1999.90;999.90;;;;;;;2.22;73.55;96828.88;5096675;28;20044;-72
2020/12/06 01:49:21;;;;;;;1999.90;999.90;;;;;;;2.26;73.93;96831.97;5096918;28;20044;-72
2020/12/06 01:51:59;;;;;;;1999.90;999.90;;;;;;;2.27;73.39;96837.03;5096499;28;20040;-72
2020/12/06 01:54:25;;;;;;;1999.90;999.90;;;;;;;2.24;73.95;96831.31;5096416;28;20519;-72
2020/12/06 01:56:51;;;;;;;1999.90;999.90;;;;;;;2.08;73.80;96825.13;5096225;28;20047;-71
2020/12/06 01:59:17;;;;;;;1999.90;999.90;;;;;;;1.97;74.75;96844.47;5096514;28;20059;-71
2020/12/06 02:02:00;;;;;;;1999.90;999.90;;;;;;;2.13;73.78;96842.88;5096245;28;20402;-71
2020/12/06 02:04:28;;;;;;;1999.90;999.90;;;;;;;2.16;74.08;96834.72;5095773;28;20048;-72
2020/12/06 02:06:55;;;;;;;1999.90;999.90;;;;;;;1.98;74.94;96822.69;5096128;28;20047;-72
2020/12/06 02:09:21;;;;;;;1999.90;999.90;;;;;;;1.76;75.45;96839.72;5096198;28;20048;-71
2020/12/06 02:11:47;;;;;;;1999.90;999.90;;;;;;;1.73;75.78;96839.22;5096132;28;20093;-72
2020/12/06 02:14:14;;;;;;;1999.90;999.90;;;;;;;1.86;75.16;96833.56;5096025;28;20040;-72
2020/12/06 02:16:39;;;;;;;1999.90;999.90;;;;;;;1.91;75.20;96832.09;5095964;28;20113;-71
2020/12/06 02:19:10;;;;;;;1999.90;999.90;;;;;;;1.83;75.27;96834.69;5096057;28;20048;-72
2020/12/06 02:21:39;;;;;;;1999.90;999.90;;;;;;;1.58;75.66;96837.22;5095870;28;20040;-72
2020/12/06 02:24:07;;;;;;;1999.90;999.90;;;;;;;1.77;75.71;96841.34;5095253;28;20043;-72
2020/12/06 02:26:43;;;;;;;1999.90;999.90;;;;;;;1.54;76.21;96851.53;5095559;28;20036;-72
2020/12/06 02:29:09;;;;;;;1999.90;999.90;;;;;;;1.69;76.11;96845.72;5095331;28;20054;-72
2020/12/06 02:31:35;;;;;;;1999.90;999.90;;;;;;;1.65;76.17;96859.03;5095735;28;20111;-72
2020/12/06 02:34:00;;;;;;;1999.90;999.90;;;;;;;1.60;76.20;96848.28;5095446;28;20047;-72
2020/12/06 02:36:26;;;;;;;1999.90;999.90;;;;;;;1.71;76.09;96846.34;5095288;28;20051;-72
2020/12/06 02:38:52;;;;;;;1999.90;999.90;;;;;;;1.77;76.09;96849.16;5095049;28;20096;-71
2020/12/06 02:41:18;;;;;;;1999.90;999.90;;;;;;;1.98;75.18;96835.69;5095170;28;20036;-72
2020/12/06 02:43:43;;;;;;;1999.90;999.90;;;;;;;2.01;75.03;96841.53;5095247;28;20048;-72
2020/12/06 02:46:09;;;;;;;1999.90;999.90;;;;;;;2.07;74.83;96840.91;5095189;28;20042;-72
2020/12/06 02:48:34;;;;;;;1999.90;999.90;;;;;;;2.19;74.18;96844.84;5094920;28;20120;-71
2020/12/06 02:51:00;;;;;;;1999.90;999.90;;;;;;;2.16;74.74;96844.34;5095054;28;20055;-72
2020/12/06 02:53:25;;;;;;;1999.90;999.90;;;;;;;2.24;74.23;96834.75;5094977;28;20036;-72
2020/12/06 02:55:50;;;;;;;1999.90;999.90;;;;;;;2.12;74.56;96833.44;5094931;28;20032;-72
2020/12/06 02:58:16;;;;;;;1999.90;999.90;;;;;;;2.14;75.05;96847.09;5094960;28;20043;-72
2020/12/06 03:00:41;;;;;;;1999.90;999.90;;;;;;;2.20;74.87;96830.03;5094981;28;20044;-72
2020/12/06 03:03:07;;;;;;;1999.90;999.90;;;;;;;1.98;75.09;96842.69;5094875;28;20067;-72
2020/12/06 03:05:32;;;;;;;1999.90;999.90;;;;;;;1.93;75.45;96843.16;5094666;28;20036;-72
2020/12/06 03:07:57;;;;;;;1999.90;999.90;;;;;;;1.85;75.87;96837.97;5094651;28;20071;-72
2020/12/06 03:10:23;;;;;;;1999.90;999.90;;;;;;;1.91;75.94;96847.72;5094733;28;20044;-72
2020/12/06 03:12:48;;;;;;;1999.90;999.90;;;;;;;1.93;75.75;96844.97;5094821;28;20121;-72
2020/12/06 03:15:14;;;;;;;1999.90;999.90;;;;;;;1.94;75.91;96836.16;5094499;28;20127;-72
2020/12/06 03:17:39;;;;;;;1999.90;999.90;;;;;;;1.88;76.21;96848.03;5094533;28;20492;-72
2020/12/06 03:20:04;;;;;;;1999.90;999.90;;;;;;;1.91;76.58;96839.91;5094634;28;20118;-72
2020/12/06 03:22:32;;;;;;;1999.90;999.90;;;;;;;2.07;76.06;96833.94;5094345;28;20518;-72
2020/12/06 03:24:59;;;;;;;1999.90;999.90;;;;;;;2.16;75.71;96833.94;5094595;28;20123;-72
2020/12/06 03:27:25;;;;;;;1999.90;999.90;;;;;;;2.01;76.32;96831.13;5094078;28;20035;-71
2020/12/06 03:29:50;;;;;;;1999.90;999.90;;;;;;;2.16;75.42;96829.53;5094425;28;20051;-72
2020/12/06 03:32:15;;;;;;;1999.90;999.90;;;;;;;2.22;75.54;96828.88;5093051;28;20051;-71
2020/12/06 03:34:41;;;;;;;1999.90;999.90;;;;;;;2.26;75.06;96835.38;5094317;28;20123;-72
2020/12/06 03:37:06;;;;;;;1999.90;999.90;;;;;;;1.94;76.79;96842.19;5094031;28;20044;-72
2020/12/06 03:39:32;;;;;;;1999.90;999.90;;;;;;;1.98;76.32;96832.28;5094220;28;20043;-72
2020/12/06 03:41:57;;;;;;;1999.90;999.90;;;;;;;1.98;75.89;96838.31;5094165;28;20044;-72
2020/12/06 03:44:22;;;;;;;1999.90;999.90;;;;;;;2.23;75.01;96833.13;5094081;28;20050;-72
2020/12/06 03:46:48;;;;;;;1999.90;999.90;;;;;;;2.34;74.73;96836.38;5093678;28;20038;-72
2020/12/06 03:49:13;;;;;;;1999.90;999.90;;;;;;;2.33;74.96;96834.75;5093991;28;20479;-72
2020/12/06 03:51:39;;;;;;;1999.90;999.90;;;;;;;2.41;74.96;96816.53;5093212;28;20055;-72
2020/12/06 03:54:04;;;;;;;1999.90;999.90;;;;;;;2.43;74.74;96830.19;5094092;28;20044;-72
2020/12/06 03:56:29;;;;;;;1999.90;999.90;;;;;;;2.41;74.89;96827.75;5093712;28;20059;-72
2020/12/06 03:58:55;;;;;;;1999.90;999.90;;;;;;;2.45;74.68;96834.25;5093820;28;20472;-72
2020/12/06 04:01:20;;;;;;;1999.90;999.90;;;;;;;2.49;74.25;96829.53;5093716;28;20067;-72
2020/12/06 04:03:46;;;;;;;1999.90;999.90;;;;;;;2.53;74.23;96836.06;5093662;28;20532;-72
2020/12/06 04:06:11;;;;;;;1999.90;999.90;;;;;;;2.49;74.16;96845.16;5093510;28;20107;-72
2020/12/06 04:08:37;;;;;;;1999.90;999.90;;;;;;;2.38;74.23;96855.91;5093349;28;20048;-72
2020/12/06 04:11:02;;;;;;;1999.90;999.90;;;;;;;2.42;74.06;96854.59;5093640;28;20040;-71
2020/12/06 04:13:28;;;;;;;1999.90;999.90;;;;;;;2.37;74.51;96856.88;5093511;28;20036;-72
2020/12/06 04:15:53;;;;;;;1999.90;999.90;;;;;;;2.44;74.32;96852.66;5093407;28;20117;-72
2020/12/06 04:18:18;;;;;;;1999.90;999.90;;;;;;;2.43;74.38;96848.41;5093598;28;20036;-72
2020/12/06 04:20:44;;;;;;;1999.90;999.90;;;;;;;2.51;74.29;96850.22;5093213;28;20063;-72
2020/12/06 04:23:09;;;;;;;1999.90;999.90;;;;;;;2.55;73.64;96852.34;5093543;28;20072;-72
2020/12/06 04:25:35;;;;;;;1999.90;999.90;;;;;;;2.58;73.70;96859.81;5093648;28;20044;-72
2020/12/06 04:28:00;;;;;;;1999.90;999.90;;;;;;;2.39;74.51;96850.53;5093533;28;20052;-72
2020/12/06 04:30:25;;;;;;;1999.90;999.90;;;;;;;2.39;74.12;96857.53;5093543;28;20043;-72
2020/12/06 04:32:51;;;;;;;1999.90;999.90;;;;;;;2.50;73.91;96856.41;5093256;28;20048;-71
2020/12/06 04:35:16;;;;;;;1999.90;999.90;;;;;;;2.56;73.69;96845.34;5093255;28;20044;-72
2020/12/06 04:37:41;;;;;;;1999.90;999.90;;;;;;;2.56;73.92;96846.16;5092063;28;20138;-72
2020/12/06 04:40:07;;;;;;;1999.90;999.90;;;;;;;2.47;73.88;96845.34;5093119;28;20044;-71
2020/12/06 04:42:32;;;;;;;1999.90;999.90;;;;;;;2.58;73.83;96852.00;5075229;28;20047;-72
2020/12/06 04:45:00;;;;;;;1999.90;999.90;;;;;;;2.47;74.19;96860.16;5093233;28;20044;-72
2020/12/06 04:48:07;;;;;;;1999.90;999.90;;;;;;;2.40;74.20;96853.97;5093293;28;20511;-72
2020/12/06 04:50:40;;;;;;;1999.90;999.90;;;;;;;2.52;73.88;96857.88;5075874;28;20051;-72
2020/12/06 04:53:06;;;;;;;1999.90;999.90;;;;;;;2.51;74.01;96863.25;5092985;28;20094;-71
2020/12/06 04:55:35;;;;;;;1999.90;999.90;;;;;;;2.54;74.30;96866.34;5093123;28;20048;-72
2020/12/06 04:58:04;;;;;;;1999.90;999.90;;;;;;;2.59;73.59;96861.47;5093229;28;20065;-72
2020/12/06 05:00:36;;;;;;;1999.90;999.90;;;;;;;2.64;74.07;96872.22;5093223;28;20074;-72
2020/12/06 05:03:12;;;;;;;1999.90;999.90;;;;;;;2.67;73.82;96873.66;5093223;28;20040;-72
2020/12/06 05:05:39;;;;;;;1999.90;999.90;;;;;;;2.60;73.87;96870.91;5092770;28;20144;-72
2020/12/06 05:08:07;;;;;;;1999.90;999.90;;;;;;;2.57;74.19;96862.59;5093131;28;20054;-72
2020/12/06 05:10:41;;;;;;;1999.90;999.90;;;;;;;2.67;74.25;96873.66;5093150;28;20046;-72
2020/12/06 05:13:09;;;;;;;1999.90;999.90;;;;;;;2.68;74.13;96869.25;5092939;28;20044;-72
2020/12/06 05:15:35;;;;;;;1999.90;999.90;;;;;;;2.70;73.96;96877.75;5091708;28;20119;-72
2020/12/06 05:18:02;;;;;;;1999.90;999.90;;;;;;;2.72;73.81;96875.78;5092919;28;20044;-72
2020/12/06 05:20:28;;;;;;;1999.90;999.90;;;;;;;2.59;74.25;96884.91;5092970;28;20039;-72
2020/12/06 05:22:54;;;;;;;1999.90;999.90;;;;;;;2.60;74.48;96878.72;5092766;28;20386;-72
2020/12/06 05:25:20;;;;;;;1999.90;999.90;;;;;;;2.57;74.58;96880.84;5093350;28;20040;-72
2020/12/06 05:27:46;;;;;;;1999.90;999.90;;;;;;;2.65;74.74;96878.22;5093051;28;20043;-72
2020/12/06 05:30:12;;;;;;;1999.90;999.90;;;;;;;2.65;74.53;96865.19;5092852;28;20378;-72
2020/12/06 05:32:38;;;;;;;1999.90;999.90;;;;;;;2.37;75.30;96877.72;5093072;28;20036;-72
2020/12/06 05:35:06;;;;;;;1999.90;999.90;;;;;;;2.24;75.81;96884.22;5092596;28;20042;-72
2020/12/06 05:37:34;;;;;;;1999.90;999.90;;;;;;;2.30;75.87;96887.97;5092664;28;20048;-72
2020/12/06 05:40:11;;;;;;;1999.90;999.90;;;;;;;2.10;76.39;96893.47;5092765;28;20123;-72
2020/12/06 05:42:39;;;;;;;1999.90;999.90;;;;;;;1.62;78.33;96889.75;5092789;28;20112;-72
2020/12/06 05:45:05;;;;;;;1999.90;999.90;;;;;;;1.47;79.08;96892.13;5092707;28;20481;-72
2020/12/06 05:47:31;;;;;;;1999.90;999.90;;;;;;;1.48;79.28;96904.16;5073590;28;20066;-72
2020/12/06 05:49:57;;;;;;;1999.90;999.90;;;;;;;1.61;78.57;96906.34;5092763;28;20044;-72
2020/12/06 05:52:31;;;;;;;1999.90;999.90;;;;;;;1.73;78.11;96901.66;5092750;28;20131;-72
2020/12/06 05:54:59;;;;;;;1999.90;999.90;;;;;;;1.92;77.46;96901.41;5092712;28;20110;-71
2020/12/06 05:57:36;;;;;;;1999.90;999.90;;;;;;;2.02;76.91;96905.66;5092636;28;20059;-72
2020/12/06 06:00:03;;;;;;;1999.90;999.90;;;;;;;2.04;76.98;96914.13;5092664;28;20127;-72
2020/12/06 06:02:29;;;;;;;1999.90;999.90;;;;;;;2.10;76.80;96913.50;5092589;28;20127;-72
2020/12/06 06:05:03;;;;;;;1999.90;999.90;;;;;;;2.09;76.89;96917.06;5092398;28;20082;-72
2020/12/06 06:07:59;;;;;;;1999.90;999.90;;;;;;;2.23;76.48;96915.66;5092534;28;20071;-72
2020/12/06 06:10:45;;;;;;;1999.90;999.90;;;;;;;2.33;75.78;96925.91;5091025;28;20081;-72
2020/12/06 06:13:10;;;;;;;1999.90;999.90;;;;;;;2.38;75.76;96926.25;5092545;28;20045;-72
2020/12/06 06:15:36;;;;;;;1999.90;999.90;;;;;;;2.37;76.05;96924.59;5094955;28;20044;-72
2020/12/06 06:18:03;;;;;;;1999.90;999.90;;;;;;;2.47;75.46;96925.28;5094775;28;20048;-72
2020/12/06 06:20:30;;;;;;;1999.90;999.90;;;;;;;2.41;75.52;96923.34;5095895;28;20051;-72
2020/12/06 06:22:57;;;;;;;1999.90;999.90;;;;;;;2.53;75.17;96924.63;5095565;28;20060;-72
2020/12/06 06:25:23;;;;;;;1999.90;999.90;;;;;;;2.50;74.96;96921.53;5095214;28;20032;-72
2020/12/06 06:27:49;;;;;;;1999.90;999.90;;;;;;;2.53;75.19;96919.41;5095437;28;20043;-72
2020/12/06 06:30:16;;;;;;;1999.90;999.90;;;;;;;2.56;75.40;96913.91;5095483;28;20052;-72
2020/12/06 06:32:42;;;;;;;1999.90;999.90;;;;;;;2.63;75.20;96909.66;5095524;28;20043;-72
2020/12/06 06:35:09;;;;;;;1999.90;999.90;;;;;;;2.68;75.31;96916.16;5095507;28;20036;-72
2020/12/06 06:37:36;;;;;;;1999.90;999.90;;;;;;;2.74;75.25;96920.72;5095413;28;20101;-72
2020/12/06 06:40:09;;;;;;;1999.90;999.90;;;;;;;2.81;75.03;96911.31;5095263;28;20067;-72
2020/12/06 06:42:37;;;;;;;1999.90;999.90;;;;;;;2.88;74.75;96912.25;5095211;28;20044;-72
2020/12/06 06:45:06;;;;;;;1999.90;999.90;;;;;;;2.88;74.64;96916.66;5094834;28;20044;-72
2020/12/06 06:47:35;;;;;;;1999.90;999.90;;;;;;;2.87;75.00;96905.41;5095142;28;20474;-72
2020/12/06 06:50:01;;;;;;;1999.90;999.90;;;;;;;2.91;74.62;96909.34;5095070;28;20043;-72
2020/12/06 06:52:29;;;;;;;1999.90;999.90;;;;;;;3.00;74.18;96919.75;5095172;28;20131;-72
2020/12/06 06:54:57;;;;;;;1999.90;999.90;;;;;;;2.60;75.16;96920.41;5094961;28;20040;-72
2020/12/06 06:57:24;;;;;;;1999.90;999.90;;;;;;;2.48;75.93;96919.09;5094670;28;20062;-72
2020/12/06 06:59:52;;;;;;;1999.90;999.90;;;;;;;2.75;75.14;96909.34;5095009;28;20051;-72
2020/12/06 07:02:37;;;;;;;1999.90;999.90;;;;;;;2.72;75.27;96907.03;5094959;28;20051;-72
2020/12/06 07:05:04;;;;;;;1999.90;999.90;;;;;;;2.82;75.03;96902.47;5094746;28;20036;-72
2020/12/06 07:07:35;;;;;;;1999.90;999.90;;;;;;;2.85;75.09;96902.16;5094897;28;20245;-72
2020/12/06 07:10:03;;;;;;;1999.90;999.90;;;;;;;2.94;74.29;96901.19;5094839;28;20052;-72
2020/12/06 07:12:39;;;;;;;1999.90;999.90;;;;;;;3.00;74.24;96893.69;5108840;28;20036;-72
2020/12/06 07:15:09;;;;;;;1999.90;999.90;;;;;;;3.08;74.69;96902.31;5094680;28;20040;-72
2020/12/06 07:17:34;;;;;;;1999.90;999.90;;;;;;;3.10;73.92;96894.31;5101270;28;20080;-72
2020/12/06 07:20:01;;;;;;;1999.90;999.90;;;;;;;3.22;74.48;96898.22;5094664;28;20075;-72
2020/12/06 07:22:26;;;;;;;1999.90;999.90;;;;;;;3.23;74.10;96889.38;5094410;28;20059;-72
2020/12/06 07:24:52;;;;;;;1999.90;999.90;;;;;;;3.19;74.36;96890.72;5094333;28;20481;-72
2020/12/06 07:27:17;;;;;;;1999.90;999.90;;;;;;;3.28;74.00;96892.31;5094625;28;20044;-72
2020/12/06 07:29:43;;;;;;;1999.90;999.90;;;;;;;3.34;74.13;96885.63;5094793;28;20051;-72
2020/12/06 07:32:08;;;;;;;1999.90;999.90;;;;;;;3.35;74.29;96882.03;5094554;28;20059;-72
2020/12/06 07:34:34;;;;;;;1999.90;999.90;;;;;;;3.44;74.53;96890.63;5094775;28;20044;-72
2020/12/06 07:37:00;;;;;;;1999.90;999.90;;;;;;;3.41;74.51;96891.00;5093843;28;20048;-72
2020/12/06 07:39:26;;;;;;;1999.90;999.90;;;;;;;3.38;73.93;96892.13;5092680;28;20100;-72
2020/12/06 07:41:51;;;;;;;1999.90;999.90;;;;;;;3.21;74.37;96880.94;5093931;28;20039;-71
2020/12/06 07:44:17;;;;;;;1999.90;999.90;;;;;;;3.29;74.52;96891.34;5094056;28;20382;-71
2020/12/06 07:46:43;;;;;;;1999.90;999.90;;;;;;;3.42;74.26;96893.44;5094322;28;20051;-71
2020/12/06 07:49:08;;;;;;;1999.90;999.90;;;;;;;3.34;74.39;96895.22;5094251;28;20087;-71
2020/12/06 07:51:34;;;;;;;1999.90;999.90;;;;;;;3.42;74.31;96887.41;5094295;28;20570;-71
2020/12/06 07:54:02;;;;;;;1999.90;999.90;;;;;;;2.95;75.62;96889.78;5093941;28;20177;-71
2020/12/06 07:56:31;;;;;;;1999.90;999.90;;;;;;;3.11;75.11;96896.75;5093465;28;20517;-71
2020/12/06 07:59:06;;;;;;;1999.90;999.90;;;;;;;3.07;75.56;96887.63;5094175;28;20445;-72
2020/12/06 08:01:32;;;;;;;1999.90;999.90;;;;;;;3.20;74.82;96883.72;5093982;28;20040;-72
2020/12/06 08:03:58;;;;;;;1999.90;999.90;;;;;;;3.20;74.69;96889.72;5093901;28;20085;-71
2020/12/06 08:06:27;;;;;;;1999.90;999.90;;;;;;;3.35;74.04;96881.22;5093380;28;20586;-72
2020/12/06 08:08:57;;;;;;;1999.90;999.90;;;;;;;3.43;73.92;96889.00;5093975;28;20396;-72
2020/12/06 08:11:35;;;;;;;1999.90;999.90;;;;;;;3.46;73.99;96884.28;5093910;28;20043;-72
2020/12/06 08:14:01;;;;;;;1999.90;999.90;;;;;;;3.55;73.60;96885.06;5094028;28;20078;-72
2020/12/06 08:16:26;;;;;;;1999.90;999.90;;;;;;;3.62;73.84;96878.19;5093581;28;20044;-72
2020/12/06 08:18:59;;;;;;;1999.90;999.90;;;;;;;3.67;73.80;96880.28;5093591;28;20042;-72
2020/12/06 08:21:25;;;;;;;1999.90;999.90;;;;;;;3.73;73.79;96877.00;5093576;28;20093;-72
2020/12/06 08:23:50;;;;;;;1999.90;999.90;;;;;;;3.80;74.02;96871.91;5093787;28;20052;-71
2020/12/06 08:26:16;;;;;;;1999.90;999.90;;;;;;;3.89;73.31;96868.28;5093468;28;20048;-72
2020/12/06 08:28:42;;;;;;;1999.90;999.90;;;;;;;3.91;73.09;96853.25;5093527;28;20055;-72
2020/12/06 08:31:27;;;;;;;1999.90;999.90;;;;;;;3.39;75.45;96866.84;5093536;28;20036;-72
2020/12/06 08:34:06;;;;;;;1999.90;999.90;;;;;;;3.53;75.03;96868.75;5093111;28;20069;-72
2020/12/06 08:36:32;;;;;;;1999.90;999.90;;;;;;;3.73;74.40;96873.59;5092123;28;20117;-72
2020/12/06 08:38:57;;;;;;;1999.90;999.90;;;;;;;3.51;75.67;96869.91;5092943;28;20078;-72
2020/12/06 08:41:25;;;;;;;1999.90;999.90;;;;;;;3.55;75.19;96861.59;5093060;28;20043;-72
2020/12/06 08:44:00;;;;;;;1999.90;999.90;;;;;;;3.72;74.61;96856.28;5093337;28;20581;-72
2020/12/06 08:46:26;;;;;;;1999.90;999.90;;;;;;;3.89;74.45;96857.81;5092971;28;20048;-72
2020/12/06 08:48:54;;;;;;;1999.90;999.90;;;;;;;4.08;74.13;96864.41;5093476;28;20036;-70
2020/12/06 08:51:36;;;;;;;1999.90;999.90;;;;;;;4.13;74.20;96869.94;5093424;28;20067;-72
2020/12/06 08:54:11;;;;;;;1999.90;999.90;;;;;;;4.18;74.03;96866.81;5093011;28;20075;-72
2020/12/06 08:56:39;;;;;;;1999.90;999.90;;;;;;;4.28;74.53;96856.13;5092855;28;20055;-72
2020/12/06 08:59:08;;;;;;;1999.90;999.90;;;;;;;4.41;73.99;96859.00;5093169;28;20385;-72
2020/12/06 09:01:56;;;;;;;1999.90;999.90;;;;;;;4.47;73.88;96854.06;5093101;28;20039;-72
2020/12/06 09:04:22;;;;;;;1999.90;999.90;;;;;;;4.49;73.92;96855.50;5092887;28;20481;-72
2020/12/06 09:06:57;;;;;;;1999.90;999.90;;;;;;;4.49;73.49;96845.03;5092779;28;20048;-72
2020/12/06 09:09:22;;;;;;;1999.90;999.90;;;;;;;4.65;73.84;96846.69;5093133;28;20481;-72
2020/12/06 09:11:54;;;;;;;1999.90;999.90;;;;;;;4.69;74.18;96839.31;5093092;28;20040;-72
2020/12/06 09:14:20;;;;;;;1999.90;999.90;;;;;;;4.72;74.36;96842.38;5092821;28;20413;-72
2020/12/06 09:16:46;;;;;;;1999.90;999.90;;;;;;;4.59;73.86;96837.78;5092709;28;20105;-72
2020/12/06 09:19:11;;;;;;;1999.90;999.90;;;;;;;4.20;75.04;96832.69;5092945;28;20109;-71
2020/12/06 09:21:37;;;;;;;1999.90;999.90;;;;;;;3.89;77.14;96842.16;5092407;28;20512;-74
2020/12/06 09:24:03;;;;;;;1999.90;999.90;;;;;;;3.90;77.60;96838.56;5092557;28;20406;-72
2020/12/06 09:26:34;;;;;;;1999.90;999.90;;;;;;;4.15;77.03;96809.69;5092687;28;20055;-72
2020/12/06 09:29:00;;;;;;;1999.90;999.90;;;;;;;4.22;76.21;96815.84;5092243;28;20083;-71
2020/12/06 09:31:26;;;;;;;1999.90;999.90;;;;;;;4.31;75.64;96810.56;5092664;28;20520;-71
2020/12/06 09:33:55;;;;;;;1999.90;999.90;;;;;;;4.34;75.99;96810.22;5092749;28;20040;-71
2020/12/06 09:36:20;;;;;;;1999.90;999.90;;;;;;;4.29;75.95;96808.91;5092380;28;20044;-72
2020/12/06 09:38:49;;;;;;;1999.90;999.90;;;;;;;4.40;75.66;96819.94;5092548;28;20112;-72
2020/12/06 09:41:15;;;;;;;1999.90;999.90;;;;;;;4.34;76.13;96816.25;5092535;28;20501;-71
2020/12/06 09:43:48;;;;;;;1999.90;999.90;;;;;;;4.41;75.88;96817.19;5077521;28;20500;-71
2020/12/06 09:46:23;;;;;;;1999.90;999.90;;;;;;;4.50;75.51;96817.09;5092492;28;20431;-71
2020/12/06 09:48:48;;;;;;;1999.90;999.90;;;;;;;4.59;74.75;96816.03;5092068;28;20178;-71
2020/12/06 09:51:17;;;;;;;1999.90;999.90;;;;;;;4.65;74.60;96809.28;5096081;28;20547;-71
2020/12/06 09:53:44;;;;;;;1999.90;999.90;;;;;;;4.68;73.95;96798.47;5095554;28;20043;-71
2020/12/06 09:56:09;;;;;;;1999.90;999.90;;;;;;;4.54;74.24;96808.75;5095564;28;20040;-71
2020/12/06 09:58:35;;;;;;;1999.90;999.90;;;;;;;4.59;74.30;96792.50;5096105;28;20050;-71
2020/12/06 10:01:00;;;;;;;1999.90;999.90;;;;;;;4.64;74.23;96802.44;5096199;28;20508;-71
2020/12/06 10:03:26;;;;;;;1999.90;999.90;;;;;;;4.52;75.04;96800.25;5095998;28;20129;-72
2020/12/06 10:05:51;;;;;;;1999.90;999.90;;;;;;;4.56;75.23;96782.41;5095933;28;20047;-71
2020/12/06 10:08:17;;;;;;;1999.90;999.90;;;;;;;4.72;74.68;96781.44;5095754;28;20054;-71
2020/12/06 10:10:42;;;;;;;1999.90;999.90;;;;;;;4.80;74.29;96786.59;5095953;28;20039;-71
2020/12/06 10:13:08;;;;;;;1999.90;999.90;;;;;;;4.70;74.96;96780.81;5095324;28;20486;-71
2020/12/06 10:15:33;;;;;;;1999.90;999.90;;;;;;;4.49;75.84;96774.47;5095604;28;20121;-71
2020/12/06 10:17:58;;;;;;;1999.90;999.90;;;;;;;4.66;75.41;96774.31;5095484;28;20051;-72
2020/12/06 10:20:24;;;;;;;1999.90;999.90;;;;;;;4.78;75.32;96767.66;5095445;28;20048;-72
2020/12/06 10:22:49;;;;;;;1999.90;999.90;;;;;;;4.78;75.32;96763.22;5095607;28;20055;-71
2020/12/06 10:25:15;;;;;;;1999.90;999.90;;;;;;;4.71;75.69;96764.13;5095848;28;20040;-71
2020/12/06 10:27:40;;;;;;;1999.90;999.90;;;;;;;4.91;74.96;96761.81;5095813;28;20432;-72
2020/12/06 10:30:06;;;;;;;1999.90;999.90;;;;;;;5.05;74.71;96757.56;5095946;28;20048;-72
2020/12/06 10:32:32;;;;;;;1999.90;999.90;;;;;;;5.09;74.75;96754.41;5095550;28;20048;-72
2020/12/06 10:34:57;;;;;;;1999.90;999.90;;;;;;;5.20;74.47;96753.16;5095656;28;20047;-72
2020/12/06 10:37:23;;;;;;;1999.90;999.90;;;;;;;5.04;74.64;96750.72;5095580;28;20048;-71
2020/12/06 10:39:48;;;;;;;1999.90;999.90;;;;;;;4.88;75.37;96741.22;5095702;28;20558;-72
2020/12/06 10:42:14;;;;;;;1999.90;999.90;;;;;;;4.90;75.26;96744.50;5095657;28;20051;-72
2020/12/06 10:44:40;;;;;;;1999.90;999.90;;;;;;;4.23;77.03;96744.34;5094856;28;20052;-72
2020/12/06 10:47:05;;;;;;;1999.90;999.90;;;;;;;4.17;78.23;96745.03;5094879;28;20488;-71
2020/12/06 10:49:31;;;;;;;1999.90;999.90;;;;;;;4.16;78.28;96743.41;5095438;28;20081;-71
2020/12/06 10:51:57;;;;;;;1999.90;999.90;;;;;;;4.45;77.25;96744.44;5095659;28;20481;-71
2020/12/06 10:54:22;;;;;;;1999.90;999.90;;;;;;;4.32;77.77;96736.41;5095230;28;20047;-70
2020/12/06 10:56:48;;;;;;;1999.90;999.90;;;;;;;4.50;77.26;96739.50;5094832;28;20055;-72
2020/12/06 10:59:13;;;;;;;1999.90;999.90;;;;;;;4.58;77.22;96739.44;5095324;28;20040;-72
2020/12/06 11:01:39;;;;;;;1999.90;999.90;;;;;;;4.74;77.15;96735.03;5094901;28;20048;-71